Overton, Nevada Weather observations

Data are for observation ending at time listed.
 Day   Time    Ave.   Ave.  Ave.  Vector   Max.   Stn.    Total    Solar   Ave.  
  of    of     Air    Rel.  Wind   Wind    Wind   Baro.  Precip.   Rad.    Soil  
Year   Day     Temp.  Hum.  Speed  Dir.    Gust   Pres.                    Temp. 
2016   (PST)    F      %     mph   deg.    mph     mb.     in.     W/m2     F   
------------------------------------------------------------------------------
 236   21:50   80.9    53    0.9   277      1.9   968.6    0.00       0    83.1
 236   22:00   81.0    52    0.9   288      2.3   968.6    0.00       0    83.0
 236   22:10   81.0    52    0.5   199      1.5   968.6    0.00       0    83.0
 236   22:20   81.1    53    0.0   136      0.7   968.7    0.00       0    83.0
 236   22:30   79.5    61    1.9   356      2.9   968.8    0.00       0    82.9
 236   22:40   78.4    65    1.5    13      2.3   968.8    0.00       0    82.8
 236   22:50   78.9    60    2.4    48      4.0   968.8    0.00       0    82.8
 236   23:00   80.5    54    0.9    59      2.8   968.7    0.00       0    82.7
 236   23:10   81.1    54    0.3   192      1.4   968.7    0.00       0    82.7
 236   23:20   80.7    56    1.4   243      2.5   968.8    0.00       0    82.6
 236   23:30   80.5    57    0.9   265      2.4   968.8    0.00       0    82.6
 236   23:40   79.8    59    0.5   288      1.7   968.7    0.00       0    82.5
 236   23:50   79.4    61    0.6     5      1.6   968.5    0.00       0    82.5
 237    0:00   78.7    63    0.7    18      1.9   968.4    0.00       0    82.4
 237    0:10   79.0    62    0.8    54      2.6   968.3    0.00       0    82.3
 237    0:20   77.1    69    1.1     0      2.0   968.2    0.00       0    82.2
 237    0:30   77.0    68    0.2   305      1.2   968.0    0.00       0    82.0
 237    0:40   76.2    70    1.2   334      2.4   968.0    0.00       0    81.9
 237    0:50   76.6    67    2.0   274      3.1   968.1    0.00       0    81.7
 237    1:00   75.7    70    3.1   334      4.0   968.2    0.00       0    81.5
 237    1:10   74.3    72    2.8   340      4.0   968.1    0.00       0    81.3
 237    1:20   76.1    64    2.6   289      4.6   968.1    0.00       0    81.0
 237    1:30   77.3    58    2.3   272      3.7   968.1    0.00       0    80.9
 237    1:40   77.6    57    2.1   270      4.1   968.1    0.00       0    80.7
 237    1:50   77.4    57    1.6   285      2.9   968.1    0.00       0    80.6
 237    2:00   76.9    58    1.6   293      3.1   968.2    0.00       0    80.4
 237    2:10   76.4    59    2.5   302      4.0   968.1    0.00       0    80.3
 237    2:20   75.4    62    2.7   310      3.9   968.1    0.00       0    80.1
 237    2:30   75.0    60    2.4   313      3.9   967.9    0.00       0    80.0
 237    2:40   75.4    59    1.6   287      3.4   967.9    0.00       0    79.8
 237    2:50   74.8    61    1.0   283      2.7   967.9    0.00       0    79.7
 237    3:00   74.5    62    1.6   322      2.9   968.0    0.00       0    79.6
 237    3:10   72.7    67    0.6   326      1.8   967.9    0.00       0    79.4
 237    3:20   71.8    68    2.0   324      3.4   967.9    0.00       0    79.3
 237    3:30   72.3    64    1.6   298      2.6   967.7    0.00       0    79.1
 237    3:40   73.7    60    1.7   262      3.3   967.6    0.00       0    78.9
 237    3:50   74.0    59    1.6   274      3.2   967.8    0.00       0    78.8
 237    4:00   72.6    65    1.2   327      1.8   967.9    0.00       0    78.7
 237    4:10   71.5    68    0.5   262      2.1   967.8    0.00       0    78.6
 237    4:20   72.7    62    2.0   291      4.0   967.9    0.00       0    78.5
 237    4:30   73.0    62    2.2   289      4.8   968.1    0.00       0    78.3
 237    4:40   73.2    61    1.1   272      2.7   968.0    0.00       0    78.2
 237    4:50   73.2    62    1.2   283      2.6   968.1    0.00       0    78.1
 237    5:00   72.4    65    1.3   301      3.1   968.2    0.00       2    78.1
 237    5:10   71.0    68    2.5   313      4.0   968.4    0.00       3    77.9
 237    5:20   71.0    68    1.4   295      2.9   968.4    0.00      10    77.8
 237    5:30   71.6    67    1.4   289      3.4   968.5    0.00      20    77.7
 237    5:40   72.1    66    4.2   302      5.4   968.6    0.00      41    77.7
 237    5:50   72.3    65    3.4   298      5.2   968.8    0.00      64    77.9
 237    6:00   73.8    62    1.6   280      4.3   968.9    0.00      74    78.2
 237    6:10   74.4    61    2.4   295      3.7   969.0    0.00     115    78.6
 237    6:20   75.3    59    1.8   301      3.8   969.2    0.00     140    79.2
 237    6:30   76.0    60    2.8   330      4.0   969.4    0.00     163    79.9
 237    6:40   76.7    58    3.3   332      4.8   969.6    0.00     195    80.5
 237    6:50   77.8    55    4.0   328      5.6   969.8    0.00     224    81.1
 237    7:00   79.0    51    3.6   319      5.8   969.9    0.00     254    81.7
 237    7:10   80.2    46    4.7   318      6.7   970.2    0.00     284    82.5
 237    7:20   80.7    45    5.0   328      6.7   970.3    0.00     312    83.1
 237    7:30   81.2    44    4.5   333      6.9   970.3    0.00     341    83.8
 237    7:40   82.0    40    4.3   332      6.4   970.5    0.00     370    84.6
 237    7:50   82.7    38    4.5   330      8.0   970.6    0.00     398    85.5
 237    8:00   83.2    37    4.8   329      7.7   970.7    0.00     388    86.3
 237    8:10   83.8    36    4.2   311      7.5   970.7    0.00     105    87.2
 237    8:20   84.5    36    2.7   296      6.1   970.9    0.00     270    88.2
 237    8:30   85.0    37    3.1   322      6.4   971.0    0.00      76    89.3
 237    8:40   86.0    35    2.0   351      5.1   971.0    0.00     354    90.4
 237    8:50   87.4    33    1.4   282      5.3   971.1    0.00     558    91.4
 237    9:00   87.6    32    2.5   313      6.4   971.2    0.00     582    92.5
 237    9:10   88.2    32    1.2   304      3.3   971.2    0.00     581    93.5
 237    9:20   89.0    31    1.7    26      6.4   971.2    0.00     468    94.5
 237    9:30   90.4    29    0.7    44      3.6   971.2    0.00     650    95.3
 237    9:40   91.1    29    1.7   250      3.7   971.2    0.00     423    96.3
 237    9:50   90.9    29    1.6    46      3.9   971.2    0.00     432    97.2
 237   10:00   91.1    29    3.4    88      6.4   971.1    0.00     566    97.9
 237   10:10   91.1    29    3.1   106      6.1   971.1    0.00     719    98.5
 237   10:20   92.1    27    2.4   105      5.7   971.0    0.00     735    99.1
 237   10:30   92.5    27    2.5   160      6.1   970.8    0.00     747    99.7
 237   10:40   93.5    26    2.9   124      6.4   970.8    0.00     762    100.3
 237   10:50   93.5    26    3.4   104      8.0   970.6    0.00     769    100.7
 237   11:00   94.2    25    2.6   126      7.2   970.5    0.00     777    101.0
 237   11:10   94.6    25    2.0   167      6.3   970.3    0.00     784    100.9
 237   11:20   94.8    25    3.3    83      7.6   970.1    0.00     790    100.2
 237   11:30   94.9    24    2.9    66      8.7   970.0    0.00     791    99.5
 237   11:40   94.6    25    3.9    47      8.7   969.9    0.00     796    99.0
 237   11:50   95.5    24    4.5    52      7.5   969.7    0.00     796    98.5
 237   12:00   95.3    24    3.3    65      9.3   969.5    0.00     796    98.0
 237   12:10   96.0    23    3.8    76      7.1   969.4    0.00     794    97.5
 237   12:20   96.4    23    4.6   142      9.1   969.3    0.00     794    97.1
 237   12:30   96.7    23    2.8   141      6.2   969.2    0.00     789    96.7
 237   12:40   97.7    22    3.2    98      6.7   969.1    0.00     780    96.4
 237   12:50   97.4    22    4.3   121     10.4   969.0    0.00     771    96.1
 237   13:00   97.3    23    4.0    68      8.5   968.8    0.00     759    95.8
 237   13:10   97.9    22    3.3   120      7.6   968.6    0.00     748    95.5
 237   13:20   98.7    21    2.7   152      7.2   968.5    0.00     735    95.3
 237   13:30   98.9    21    3.6   134      8.5   968.2    0.00     721    95.1
 237   13:40   99.0    20    4.1   163      8.9   968.1    0.00     705    95.0
 237   13:50   98.8    20    4.3   104      8.6   968.0    0.00     686    95.0
 237   14:00   99.5    18    4.8   106      8.3   967.9    0.00     668    94.9
 237   14:10   99.8    17    4.1    68      7.4   967.8    0.00     638    94.9
 237   14:20  100.0    18    3.6    76      8.6   967.8    0.00     554    94.9
 237   14:30  100.4    18    2.6    86      5.8   967.6    0.00     571    95.0
 237   14:40  100.9    18    2.5   120      5.7   967.5    0.00     449    95.2
 237   14:50  101.1    18    3.1   116      7.9   967.4    0.00     379    95.4
 237   15:00  100.9    18    3.5    92      9.1   967.4    0.00     527    95.6
 237   15:10  101.6    18    3.3   106      7.3   967.2    0.00     496    95.6
 237   15:20  101.2    18    4.0    95      7.5   967.0    0.00     477    95.7
 237   15:30  101.3    17    3.4   104      7.7   966.9    0.00     445    95.7
 237   15:40  101.2    17    4.1    79      8.5   966.7    0.00     412    95.7
 237   15:50  101.5    16    4.0   110      7.9   966.6    0.00     390    95.7
 237   16:00  101.5    16    4.0   101      8.8   966.4    0.00     336    95.7
 237   16:10  102.1    15    3.0   112      6.5   966.3    0.00     330    95.6
 237   16:20  102.1    15    3.2   111      7.3   966.1    0.00     297    95.6
 237   16:30  101.8    14    3.6   122      8.2   966.0    0.00     268    95.6
 237   16:40  101.8    14    3.4   108      8.0   965.9    0.00     238    95.5
 237   16:50  101.8    14    3.3   108      7.0   965.7    0.00     143    95.4
 237   17:00  101.6    14    3.3   117      7.7   965.5    0.00      77    95.3
 237   17:10  101.2    16    2.5   126      5.6   965.3    0.00      39    95.1
 237   17:20  100.3    17    2.9   126      7.6   965.2    0.00      37    95.0
 237   17:30   99.7    17    2.5   136      4.9   965.0    0.00      82    94.9
 237   17:40   98.7    17    3.0   147      6.6   964.9    0.00      43    94.7
 237   17:50   97.7    18    3.5   162      5.8   964.7    0.00      27    94.5
 237   18:00   97.4    17    2.6   147      6.4   964.5    0.00      17    94.3
 237   18:10   97.4    16    2.3   149      5.0   964.3    0.00      10    94.0
 237   18:20   96.2    18    2.5   157      4.5   964.1    0.00       4    93.8
 237   18:30   95.6    18    1.8   156      3.9   964.0    0.00       3    93.5
 237   18:40   94.8    19    2.0   166      3.4   964.0    0.00       0    93.1
 237   18:50   94.2    19    1.9   138      3.6   963.9    0.00       0    92.8
 237   19:00   94.0    21    1.2   128      2.7   963.9    0.00       0    92.5
 237   19:10   92.8    23    1.6   115      3.4   963.9    0.00       0    92.3
 237   19:20   91.6    25    0.7   127      1.9   963.8    0.00       0    92.0
 237   19:30   90.2    27    0.4   130      1.5   963.8    0.00       0    91.7
 237   19:40   89.8    26    0.9   130      2.3   963.8    0.00       0    91.5
 237   19:50   90.5    24    2.0   162      3.9   963.8    0.00       0    91.1
 237   20:00   89.9    25    2.2   165      3.9   963.8    0.00       0    90.8
 237   20:10   89.7    25    1.2   143      3.1   963.8    0.00       0    90.6
 237   20:20   89.5    27    0.5   112      2.7   963.8    0.00       0    90.4
 237   20:30   87.3    30    0.8    70      2.3   963.8    0.00       0    90.1
 237   20:40   85.3    33    0.8    52      2.7   963.7    0.00       0    89.9
 237   20:50   85.1    33    1.0    84      1.8   963.7    0.00       0    89.6
 237   21:00   85.1    33    0.2   236      1.6   963.7    0.00       0    89.3
 237   21:10   83.8    39    0.5   312      1.8   963.6    0.00       0    89.1
 237   21:20   81.7    44    1.3   296      3.1   963.5    0.00       0    88.9
 237   21:30   80.0    50    1.4   322      2.4   963.4    0.00       0    88.5
 237   21:40   79.8    48    0.8    54      3.4   963.3    0.00       0    88.3

Return to Overton, Nevada graphs page.


Western Regional Climate Center,wrcc@dri.edu